Time,TemperatureF,DewpointF,PressureIn,WindDirection,WindDirectionDegrees,WindSpeedMPH,WindSpeedGustMPH,Humidity,HourlyPrecipIn,Conditions,Clouds,dailyrainin,SoftwareType,DateUTC
2013-09-28 00:04:00,60.0,58.0,30.16,SSE,165,0.0,0.0,92,0.03,,,-99.99,,2013-09-28 04:04:00,
2013-09-28 00:13:00,60.0,58.0,30.16,SSE,165,0.0,0.0,92,0.03,,,-99.99,,2013-09-28 04:13:00,
2013-09-28 00:25:00,60.0,58.0,30.16,SSE,165,0.0,0.0,93,0.03,,,-99.99,,2013-09-28 04:25:00,
2013-09-28 00:43:00,60.0,58.0,30.16,SSE,165,0.0,0.0,93,0.03,,,-99.99,,2013-09-28 04:43:00,
2013-09-28 00:54:00,60.0,58.0,30.16,SSE,165,0.0,0.0,93,0.03,,,-99.99,,2013-09-28 04:54:00,
2013-09-28 01:13:00,59.0,57.0,30.16,SE,141,1.0,0.0,93,0.03,,,-99.99,,2013-09-28 05:13:00,
2013-09-28 01:22:00,59.0,58.0,30.16,South,174,6.0,0.0,95,0.03,,,-99.99,,2013-09-28 05:22:00,
2013-09-28 01:34:00,59.0,58.0,30.16,South,174,6.0,0.0,95,0.03,,,-99.99,,2013-09-28 05:34:00,
2013-09-28 01:53:00,59.0,58.0,30.16,South,174,6.0,0.0,95,0.03,,,-99.99,,2013-09-28 05:53:00,
2013-09-28 02:02:00,59.0,58.0,30.16,South,174,6.0,0.0,95,0.03,,,-99.99,,2013-09-28 06:02:00,
2013-09-28 02:22:00,58.0,57.0,30.16,South,170,7.0,0.0,98,0.03,,,-99.99,,2013-09-28 06:22:00,
2013-09-28 02:42:00,58.0,57.0,30.15,South,181,7.0,0.0,98,0.03,,,-99.99,,2013-09-28 06:42:00,
2013-09-28 02:52:00,58.0,57.0,30.16,South,174,7.0,0.0,98,0.03,,,-99.99,,2013-09-28 06:52:00,
2013-09-28 03:02:00,58.0,57.0,30.16,South,174,7.0,0.0,98,0.03,,,-99.99,,2013-09-28 07:02:00,
2013-09-28 03:12:00,58.0,57.0,30.16,South,174,7.0,0.0,98,0.03,,,-99.99,,2013-09-28 07:12:00,
2013-09-28 03:22:00,58.0,57.0,30.16,South,174,7.0,0.0,98,0.03,,,-99.99,,2013-09-28 07:22:00,
2013-09-28 03:42:00,57.0,57.0,30.15,South,177,4.0,0.0,99,0.03,,,-99.99,,2013-09-28 07:42:00,
2013-09-28 03:52:00,56.0,56.0,30.15,South,190,0.0,0.0,99,0.03,,,-99.99,,2013-09-28 07:52:00,
2013-09-28 04:02:00,56.0,56.0,30.15,South,190,0.0,0.0,99,0.03,,,-99.99,,2013-09-28 08:02:00,
2013-09-28 04:13:00,56.0,56.0,30.15,South,190,0.0,0.0,99,0.03,,,-99.99,,2013-09-28 08:13:00,
2013-09-28 04:22:00,56.0,56.0,30.15,South,190,0.0,0.0,99,0.03,,,-99.99,,2013-09-28 08:22:00,
2013-09-28 04:43:00,55.0,55.0,30.14,South,190,0.0,0.0,100,0.03,,,-99.99,,2013-09-28 08:43:00,
2013-09-28 04:52:00,54.0,54.0,30.15,SE,127,2.0,0.0,100,0.03,,,-99.99,,2013-09-28 08:52:00,
2013-09-28 04:53:00,55.0,55.0,30.15,South,190,0.0,0.0,100,0.03,,,-99.99,,2013-09-28 08:53:00,
2013-09-28 05:02:00,55.0,55.0,30.15,South,190,0.0,0.0,100,0.03,,,-99.99,,2013-09-28 09:02:00,
2013-09-28 05:12:00,55.0,55.0,30.15,South,190,0.0,0.0,100,0.03,,,-99.99,,2013-09-28 09:12:00,
2013-09-28 05:22:00,54.0,54.0,30.15,SE,127,2.0,0.0,100,0.03,,,-99.99,,2013-09-28 09:22:00,
2013-09-28 05:33:00,54.0,54.0,30.15,SE,127,2.0,0.0,100,0.03,,,-99.99,,2013-09-28 09:33:00,
2013-09-28 05:43:00,54.0,54.0,30.15,SE,127,2.0,0.0,100,0.03,,,-99.99,,2013-09-28 09:43:00,
2013-09-28 06:13:00,54.0,54.0,30.15,ESE,114,0.0,0.0,100,0.03,,,-99.99,,2013-09-28 10:13:00,
2013-09-28 06:22:00,54.0,54.0,30.15,ESE,114,0.0,0.0,100,0.03,,,-99.99,,2013-09-28 10:22:00,
2013-09-28 06:40:00,54.0,54.0,30.14,SE,132,0.0,0.0,100,0.03,,,-99.99,,2013-09-28 10:40:00,
2013-09-28 06:43:00,54.0,54.0,30.14,SE,136,4.0,0.0,100,0.03,,,-99.99,,2013-09-28 10:43:00,
2013-09-28 06:52:00,54.0,54.0,30.14,SE,136,4.0,0.0,100,0.03,,,-99.99,,2013-09-28 10:52:00,
2013-09-28 07:12:00,54.0,54.0,30.14,SE,132,0.0,0.0,100,0.03,,,-99.99,,2013-09-28 11:12:00,
2013-09-28 07:22:00,54.0,54.0,30.14,SE,132,0.0,0.0,100,0.03,,,-99.99,,2013-09-28 11:22:00,
2013-09-28 07:33:00,54.0,54.0,30.14,SE,132,0.0,0.0,100,0.03,,,-99.99,,2013-09-28 11:33:00,
2013-09-28 08:12:00,54.0,54.0,30.14,SE,142,0.0,0.0,100,0.03,,,-99.99,,2013-09-28 12:12:00,
2013-09-28 08:22:00,54.0,54.0,30.14,SE,142,0.0,0.0,100,0.03,,,-99.99,,2013-09-28 12:22:00,
2013-09-28 08:42:00,54.0,54.0,30.14,South,186,0.0,0.0,100,0.03,,,-99.99,,2013-09-28 12:42:00,
2013-09-28 08:52:00,54.0,54.0,30.14,South,186,0.0,0.0,100,0.03,,,-99.99,,2013-09-28 12:52:00,
2013-09-28 09:12:00,55.0,55.0,30.14,South,179,5.0,0.0,100,0.03,,,-99.99,,2013-09-28 13:12:00,
2013-09-28 09:22:00,56.0,56.0,30.14,South,169,5.0,0.0,100,0.03,,,-99.99,,2013-09-28 13:22:00,
2013-09-28 09:42:00,56.0,56.0,30.14,South,174,7.0,0.0,100,0.03,,,-99.99,,2013-09-28 13:42:00,
2013-09-28 09:52:00,57.0,57.0,30.14,South,179,7.0,0.0,100,0.03,,,-99.99,,2013-09-28 13:52:00,
2013-09-28 10:12:00,59.0,59.0,30.16,South,187,8.0,0.0,100,0.03,,,-99.99,,2013-09-28 14:12:00,
2013-09-28 10:22:00,60.0,60.0,30.15,SSE,167,9.0,0.0,99,0.03,,,-99.99,,2013-09-28 14:22:00,
2013-09-28 10:42:00,60.0,59.0,30.14,SSE,158,9.0,0.0,97,0.03,,,-99.99,,2013-09-28 14:42:00,
2013-09-28 10:52:00,61.0,60.0,30.14,South,176,11.0,0.0,95,0.03,,,-99.99,,2013-09-28 14:52:00,
2013-09-28 11:02:00,61.0,60.0,30.14,South,176,11.0,0.0,95,0.03,,,-99.99,,2013-09-28 15:02:00,
2013-09-28 11:12:00,61.0,60.0,30.14,South,176,11.0,0.0,95,0.03,,,-99.99,,2013-09-28 15:12:00,
2013-09-28 11:23:00,64.0,61.0,30.13,South,181,6.0,0.0,91,0.03,,,-99.99,,2013-09-28 15:23:00,
2013-09-28 11:44:00,64.0,61.0,30.13,SE,138,7.0,0.0,89,0.03,,,-99.99,,2013-09-28 15:44:00,
2013-09-28 11:54:00,65.0,61.0,30.12,South,183,9.0,0.0,87,0.03,,,-99.99,,2013-09-28 15:54:00,
2013-09-28 12:14:00,66.0,61.0,30.12,South,173,8.0,0.0,84,0.03,,,-99.99,,2013-09-28 16:14:00,
2013-09-28 12:24:00,67.0,61.0,30.11,South,184,8.0,0.0,82,0.03,,,-99.99,,2013-09-28 16:24:00,
2013-09-28 12:43:00,67.0,61.0,30.11,South,169,9.0,0.0,80,0.03,,,-99.99,,2013-09-28 16:43:00,
2013-09-28 12:54:00,69.0,61.0,30.11,SE,127,7.0,0.0,77,0.03,,,-99.99,,2013-09-28 16:54:00,
2013-09-28 13:13:00,70.0,61.0,30.10,SE,139,6.0,0.0,74,0.03,,,-99.99,,2013-09-28 17:13:00,
2013-09-28 13:23:00,71.0,61.0,30.09,South,172,9.0,0.0,70,0.03,,,-99.99,,2013-09-28 17:23:00,
2013-09-28 13:43:00,71.0,60.0,30.09,South,176,9.0,0.0,69,0.03,,,-99.99,,2013-09-28 17:43:00,
2013-09-28 13:52:00,73.0,61.0,30.08,SSW,197,8.0,0.0,65,0.03,,,-99.99,,2013-09-28 17:52:00,
2013-09-28 14:12:00,73.0,59.0,30.07,South,176,12.0,0.0,62,0.03,,,-99.99,,2013-09-28 18:12:00,
2013-09-28 14:22:00,74.0,58.0,30.05,SSW,193,12.0,0.0,57,0.03,,,-99.99,,2013-09-28 18:22:00,
2013-09-28 14:42:00,75.0,58.0,30.05,South,176,13.0,0.0,55,0.03,,,-99.99,,2013-09-28 18:42:00,
2013-09-28 14:52:00,75.0,56.0,30.03,SSE,163,13.0,0.0,52,0.03,,,-99.99,,2013-09-28 18:52:00,
2013-09-28 15:11:00,76.0,56.0,30.02,SSW,194,10.0,0.0,50,0.03,,,-99.99,,2013-09-28 19:11:00,
2013-09-28 15:22:00,76.0,54.0,30.01,South,180,13.0,0.0,46,0.03,,,-99.99,,2013-09-28 19:22:00,
2013-09-28 15:42:00,77.0,55.0,30.01,South,174,12.0,0.0,47,0.03,,,-99.99,,2013-09-28 19:42:00,
2013-09-28 15:52:00,77.0,52.0,30.01,South,183,17.0,0.0,42,0.03,,,-99.99,,2013-09-28 19:52:00,
2013-09-28 16:12:00,77.0,54.0,30.01,South,181,12.0,0.0,45,0.03,,,-99.99,,2013-09-28 20:12:00,
2013-09-28 16:23:00,76.0,53.0,30.01,South,180,16.0,0.0,45,0.03,,,-99.99,,2013-09-28 20:23:00,
2013-09-28 16:43:00,75.0,53.0,30.00,South,174,11.0,0.0,47,0.03,,,-99.99,,2013-09-28 20:43:00,
2013-09-28 16:53:00,75.0,54.0,30.00,South,186,11.0,0.0,48,0.03,,,-99.99,,2013-09-28 20:53:00,
2013-09-28 17:12:00,76.0,55.0,29.99,SSW,198,12.0,0.0,49,0.03,,,-99.99,,2013-09-28 21:12:00,
2013-09-28 17:23:00,76.0,54.0,29.99,South,186,14.0,0.0,46,0.03,,,-99.99,,2013-09-28 21:23:00,
2013-09-28 17:44:00,77.0,53.0,29.99,SW,218,13.0,0.0,44,0.03,,,-99.99,,2013-09-28 21:44:00,
2013-09-28 17:55:00,77.0,54.0,29.99,SSE,160,13.0,0.0,45,0.03,,,-99.99,,2013-09-28 21:55:00,
2013-09-28 18:14:00,76.0,53.0,29.98,South,174,14.0,0.0,45,0.03,,,-99.99,,2013-09-28 22:14:00,
2013-09-28 18:23:00,76.0,53.0,29.98,SSW,200,13.0,0.0,45,0.03,,,-99.99,,2013-09-28 22:23:00,
2013-09-28 18:43:00,76.0,54.0,29.98,SSE,167,12.0,0.0,46,0.03,,,-99.99,,2013-09-28 22:43:00,
2013-09-28 18:54:00,75.0,53.0,29.98,SSE,166,14.0,0.0,46,0.03,,,-99.99,,2013-09-28 22:54:00,
2013-09-28 19:13:00,75.0,53.0,29.98,South,186,10.0,0.0,47,0.03,,,-99.99,,2013-09-28 23:13:00,
2013-09-28 19:22:00,74.0,54.0,29.98,South,183,7.0,0.0,49,0.03,,,-99.99,,2013-09-28 23:22:00,
2013-09-28 19:43:00,73.0,54.0,29.97,South,184,8.0,0.0,51,0.03,,,-99.99,,2013-09-28 23:43:00,
2013-09-28 19:53:00,72.0,53.0,29.96,South,186,6.0,0.0,52,0.03,,,-99.99,,2013-09-28 23:53:00,
2013-09-28 20:11:00,72.0,54.0,29.96,South,174,6.0,0.0,54,0.03,,,-99.99,,2013-09-29 00:11:00,
2013-09-28 20:22:00,71.0,54.0,29.96,South,190,3.0,0.0,56,0.03,,,-99.99,,2013-09-29 00:22:00,
2013-09-28 20:43:00,70.0,55.0,29.96,SSE,166,6.0,0.0,58,0.03,,,-99.99,,2013-09-29 00:43:00,
2013-09-28 20:52:00,69.0,55.0,29.95,SSE,165,5.0,0.0,60,0.03,,,-99.99,,2013-09-29 00:52:00,
2013-09-28 21:12:00,68.0,55.0,29.95,South,174,6.0,0.0,63,0.03,,,-99.99,,2013-09-29 01:12:00,
2013-09-28 21:22:00,68.0,57.0,29.95,South,176,7.0,0.0,67,0.03,,,-99.99,,2013-09-29 01:22:00,
2013-09-28 21:43:00,67.0,56.0,29.95,SSE,163,6.0,0.0,68,0.03,,,-99.99,,2013-09-29 01:43:00,
2013-09-28 21:52:00,67.0,56.0,29.95,SSE,167,7.0,0.0,69,0.03,,,-99.99,,2013-09-29 01:52:00,
2013-09-28 22:12:00,67.0,57.0,29.95,South,169,7.0,0.0,70,0.03,,,-99.99,,2013-09-29 02:12:00,
2013-09-28 22:22:00,67.0,57.0,29.95,SSE,155,7.0,0.0,71,0.03,,,-99.99,,2013-09-29 02:22:00,
2013-09-28 22:43:00,67.0,57.0,29.95,South,188,7.0,0.0,71,0.03,,,-99.99,,2013-09-29 02:43:00,
2013-09-28 22:53:00,67.0,57.0,29.95,South,177,7.0,0.0,71,0.03,,,-99.99,,2013-09-29 02:53:00,
2013-09-28 23:12:00,67.0,56.0,29.94,SSW,198,7.0,0.0,69,0.03,,,-99.99,,2013-09-29 03:12:00,
2013-09-28 23:23:00,68.0,57.0,29.94,South,190,6.0,0.0,69,0.03,,,-99.99,,2013-09-29 03:23:00,
2013-09-28 23:55:00,70.0,55.0,29.93,SSW,197,10.0,0.0,59,0.03,,,-99.99,,2013-09-29 03:55:00,